createdAt,value
2022-09-07T00:00:09.324Z,79.59
2022-09-07T00:02:38.038Z,79.89
2022-09-07T00:05:08.151Z,79.02
2022-09-07T00:07:37.347Z,79.01
2022-09-07T00:10:06.976Z,80.80
2022-09-07T00:12:37.333Z,79.89
2022-09-07T00:15:09.521Z,79.60
2022-09-07T00:17:39.128Z,79.51
2022-09-07T00:20:12.118Z,80.50
2022-09-07T00:22:41.329Z,80.75
2022-09-07T00:25:11.072Z,80.51
2022-09-07T00:27:41.664Z,83.19
2022-09-07T00:30:11.671Z,82.48
2022-09-07T00:32:40.350Z,82.38
2022-09-07T00:35:09.968Z,81.70
2022-09-07T00:37:38.687Z,82.96
2022-09-07T00:40:08.882Z,83.38
2022-09-07T00:42:37.976Z,82.84
2022-09-07T00:45:16.915Z,84.20
2022-09-07T00:47:55.579Z,85.58
2022-09-07T00:50:31.882Z,85.22
2022-09-07T00:53:06.754Z,85.62
2022-09-07T00:55:39.139Z,85.84
2022-09-07T00:58:09.471Z,86.11
2022-09-07T01:00:42.028Z,85.41
2022-09-07T01:03:13.539Z,86.17
2022-09-07T01:05:48.360Z,85.65
2022-09-07T01:08:17.709Z,85.45
2022-09-07T01:10:47.461Z,85.42
2022-09-07T01:13:16.345Z,86.87
2022-09-07T01:15:59.958Z,86.39
2022-09-07T01:18:43.173Z,86.36
2022-09-07T01:21:24.951Z,87.99
2022-09-07T01:24:36.169Z,87.19
2022-09-07T01:27:58.396Z,87.87
2022-09-07T01:30:28.612Z,87.71
2022-09-07T01:33:29.229Z,88.01
2022-09-07T01:36:16.983Z,87.94
2022-09-07T01:38:50.519Z,88.05
2022-09-07T01:41:28.523Z,87.85
2022-09-07T01:44:06.969Z,88.03
2022-09-07T01:46:44.498Z,88.50
2022-09-07T01:49:18.967Z,88.12
2022-09-07T01:51:53.307Z,88.33
2022-09-07T01:54:34.061Z,89.05
2022-09-07T01:57:11.625Z,89.16
2022-09-07T01:59:47.402Z,89.02
2022-09-07T02:02:23.701Z,89.42
2022-09-07T02:04:58.193Z,88.80
2022-09-07T02:07:41.505Z,88.82
2022-09-07T02:10:17.429Z,88.89
2022-09-07T02:12:55.503Z,89.46
2022-09-07T02:15:33.087Z,89.20
2022-09-07T02:18:07.087Z,89.67
2022-09-07T02:20:40.633Z,90.22
2022-09-07T02:23:15.526Z,89.99
2022-09-07T02:25:52.464Z,90.69
2022-09-07T02:28:29.206Z,90.59
2022-09-07T02:30:59.506Z,91.02
2022-09-07T02:33:29.795Z,91.55
2022-09-07T02:35:59.313Z,91.32
2022-09-07T02:38:28.326Z,91.27
2022-09-07T02:41:01.025Z,90.62
2022-09-07T02:43:32.401Z,90.85
2022-09-07T02:46:23.869Z,90.47
2022-09-07T02:49:07.457Z,90.82
2022-09-07T02:51:46.677Z,91.68
2022-09-07T02:54:38.639Z,91.58
2022-09-07T02:57:23.197Z,92.59
2022-09-07T03:00:07.120Z,92.63
2022-09-07T03:02:52.275Z,92.59
2022-09-07T03:05:30.661Z,92.77
2022-09-07T03:08:52.802Z,92.68
2022-09-07T03:11:22.381Z,93.13
2022-09-07T03:13:51.073Z,92.83
2022-09-07T03:16:19.787Z,93.37
2022-09-07T03:18:50.614Z,93.11
2022-09-07T03:21:19.627Z,94.14
2022-09-07T03:23:51.683Z,93.54
2022-09-07T03:26:25.638Z,93.72
2022-09-07T03:28:54.797Z,95.13
2022-09-07T03:31:30.947Z,95.54
2022-09-07T03:34:02.419Z,95.43
2022-09-07T03:36:34.649Z,95.42
2022-09-07T03:39:09.532Z,96.15
2022-09-07T03:41:38.486Z,95.94
2022-09-07T03:44:08.860Z,96.07
2022-09-07T03:46:37.684Z,95.69
2022-09-07T03:49:13.404Z,95.94
2022-09-07T03:51:43.910Z,97.60
2022-09-07T03:54:12.594Z,96.83
2022-09-07T03:56:45.672Z,97.79
2022-09-07T03:59:20.353Z,98.22
2022-09-07T04:01:49.529Z,98.61
2022-09-07T04:04:26.849Z,99.09
2022-09-07T04:06:56.000Z,98.50
2022-09-07T04:09:24.997Z,98.21
2022-09-07T04:11:54.093Z,97.92
2022-09-07T04:14:23.156Z,99.18
2022-09-07T04:16:52.149Z,99.69
2022-09-07T04:19:22.357Z,98.80
2022-09-07T04:21:51.500Z,99.80
2022-09-07T04:24:22.894Z,100.00
2022-09-07T04:26:52.594Z,99.82
2022-09-07T04:29:21.475Z,99.55
2022-09-07T04:31:54.246Z,100.00
2022-09-07T04:34:26.612Z,100.00
2022-09-07T04:36:58.733Z,100.00
2022-09-07T04:39:39.177Z,100.00
2022-09-07T04:42:09.779Z,100.00
2022-09-07T04:44:38.820Z,100.00
2022-09-07T04:47:09.546Z,100.00
2022-09-07T04:49:41.818Z,100.00
2022-09-07T04:52:16.274Z,100.00
2022-09-07T04:54:50.966Z,100.00
2022-09-07T04:57:21.798Z,100.00
2022-09-07T05:00:12.397Z,100.00
2022-09-07T05:02:43.736Z,100.00
2022-09-07T05:05:16.653Z,99.99
2022-09-07T05:07:45.651Z,99.96
2022-09-07T05:10:14.564Z,99.94
2022-09-07T05:12:43.676Z,99.78
2022-09-07T05:15:12.927Z,99.65
2022-09-07T05:17:41.805Z,99.53
2022-09-07T05:20:11.395Z,99.37
2022-09-07T05:22:44.443Z,99.07
2022-09-07T05:25:13.103Z,99.11
2022-09-07T05:27:42.486Z,98.22
2022-09-07T05:33:02.552Z,97.47
2022-09-07T05:35:31.628Z,97.50
2022-09-07T05:38:01.788Z,96.89
2022-09-07T05:40:38.491Z,96.46
2022-09-07T05:43:10.594Z,96.68
2022-09-07T05:45:39.884Z,96.71
2022-09-07T05:48:08.869Z,96.27
2022-09-07T05:50:38.277Z,94.82
2022-09-07T05:53:08.342Z,93.88
2022-09-07T05:55:37.000Z,94.14
2022-09-07T05:58:05.835Z,93.69
2022-09-07T06:00:34.552Z,93.36
2022-09-07T06:03:03.239Z,93.21
2022-09-07T06:05:32.112Z,92.55
2022-09-07T06:08:07.286Z,92.09
2022-09-07T06:10:45.890Z,89.92
2022-09-07T06:13:14.572Z,90.22
2022-09-07T06:15:43.274Z,90.22
2022-09-07T06:18:11.979Z,90.58
2022-09-07T06:20:43.728Z,90.70
2022-09-07T06:23:12.380Z,90.13
2022-09-07T06:25:49.938Z,89.33
2022-09-07T06:28:22.436Z,89.42
2022-09-07T06:31:01.224Z,88.52
2022-09-07T06:33:32.065Z,88.67
2022-09-07T06:36:03.114Z,89.13
2022-09-07T06:38:43.072Z,88.97
2022-09-07T06:44:05.902Z,88.58
2022-09-07T06:49:27.148Z,88.25
2022-09-07T06:51:58.479Z,87.97
2022-09-07T06:57:17.636Z,86.51
2022-09-07T06:59:49.137Z,87.05
2022-09-07T07:02:22.535Z,86.29
2022-09-07T07:04:58.501Z,86.35
2022-09-07T07:07:52.702Z,84.91
2022-09-07T07:10:24.783Z,85.09
2022-09-07T07:12:58.536Z,84.83
2022-09-07T07:15:29.506Z,84.36
2022-09-07T07:18:05.399Z,84.60
2022-09-07T07:21:05.155Z,84.57
2022-09-07T07:23:37.679Z,85.07
2022-09-07T07:26:08.820Z,84.79
2022-09-07T07:31:29.772Z,84.01
2022-09-07T07:33:58.565Z,83.93
2022-09-07T07:36:29.948Z,83.13
2022-09-07T07:39:02.493Z,83.30
2022-09-07T07:44:24.906Z,82.03
2022-09-07T07:46:53.779Z,81.95
2022-09-07T07:49:22.584Z,81.92
2022-09-07T07:54:43.523Z,80.21
2022-09-07T07:57:13.027Z,78.09
2022-09-07T07:59:43.054Z,78.47
2022-09-07T08:02:17.686Z,78.47
2022-09-07T08:04:46.581Z,78.72
2022-09-07T08:07:15.820Z,78.73
2022-09-07T08:09:46.779Z,77.76
2022-09-07T08:12:18.904Z,76.87
2022-09-07T08:14:50.557Z,77.36
2022-09-07T08:17:19.376Z,77.17
2022-09-07T08:19:48.032Z,76.67
2022-09-07T08:22:16.686Z,76.82
2022-09-07T08:24:45.246Z,75.42
2022-09-07T08:27:14.587Z,75.39
2022-09-07T08:29:43.141Z,74.96
2022-09-07T08:32:15.509Z,75.10
2022-09-07T08:34:44.206Z,74.93
2022-09-07T08:37:13.698Z,74.63
2022-09-07T08:39:44.198Z,72.60
2022-09-07T08:42:38.593Z,73.50
2022-09-07T08:45:12.794Z,73.30
2022-09-07T08:47:50.492Z,73.64
2022-09-07T08:50:25.944Z,73.62
2022-09-07T08:53:01.230Z,73.85
2022-09-07T08:55:36.751Z,73.13
2022-09-07T08:58:27.116Z,72.61
2022-09-07T09:06:58.888Z,72.15
2022-09-07T09:09:46.985Z,72.68
2022-09-07T09:12:29.190Z,72.71
2022-09-07T09:15:17.650Z,73.67
2022-09-07T09:17:56.225Z,73.48
2022-09-07T09:20:37.129Z,73.38
2022-09-07T09:23:14.500Z,72.41
2022-09-07T09:25:54.285Z,72.43
2022-09-07T09:28:26.456Z,72.67
2022-09-07T09:30:57.603Z,72.92
2022-09-07T09:33:29.202Z,73.24
2022-09-07T09:36:02.316Z,73.52
2022-09-07T09:38:35.473Z,73.53
2022-09-07T09:41:09.955Z,73.36
2022-09-07T09:43:48.213Z,73.60
2022-09-07T09:46:26.996Z,73.86
2022-09-07T09:49:00.448Z,73.41
2022-09-07T09:54:34.597Z,72.81
2022-09-07T09:57:03.655Z,72.29
2022-09-07T10:05:29.733Z,70.83
2022-09-07T10:08:00.008Z,70.74
2022-09-07T10:10:32.734Z,69.75
2022-09-07T10:13:01.561Z,70.34
2022-09-07T10:15:41.315Z,70.55
2022-09-07T10:18:23.009Z,69.99
2022-09-07T10:33:09.197Z,64.10
2022-09-07T10:35:53.007Z,63.16
2022-09-07T10:38:25.037Z,61.42
2022-09-07T10:41:04.178Z,60.34
2022-09-07T10:43:46.372Z,58.03
2022-09-07T10:46:57.882Z,54.81
2022-09-07T10:50:22.016Z,56.10
2022-09-07T10:52:42.101Z,54.24
2022-09-07T10:55:20.989Z,55.23
2022-09-07T10:58:07.782Z,53.97
2022-09-07T11:00:52.228Z,52.28
2022-09-07T11:03:48.281Z,51.95
2022-09-07T11:06:23.740Z,50.37
2022-09-07T11:09:35.684Z,49.74
2022-09-07T11:12:09.634Z,49.82
2022-09-07T11:14:46.333Z,48.88
2022-09-07T11:17:21.830Z,47.90
2022-09-07T11:20:02.871Z,47.72
2022-09-07T11:22:40.168Z,47.23
2022-09-07T11:25:36.867Z,48.93
2022-09-07T11:28:15.742Z,50.24
2022-09-07T11:30:50.609Z,51.26
2022-09-07T11:33:27.181Z,51.26
2022-09-07T11:36:05.119Z,51.41
2022-09-07T11:38:46.760Z,51.63
2022-09-07T11:41:25.541Z,51.30
2022-09-07T11:44:05.716Z,50.53
2022-09-07T11:46:43.329Z,51.26
2022-09-07T11:49:21.197Z,53.58
2022-09-07T11:51:55.004Z,53.43
2022-09-07T11:54:40.076Z,54.02
2022-09-07T11:57:40.715Z,53.86
2022-09-07T12:00:19.142Z,53.60
2022-09-07T12:03:32.128Z,54.99
2022-09-07T12:06:39.642Z,55.51
2022-09-07T12:09:35.488Z,55.96
2022-09-07T12:12:35.693Z,55.88
2022-09-07T12:15:24.904Z,56.43
2022-09-07T12:18:13.217Z,56.44
2022-09-07T12:20:46.923Z,55.89
2022-09-07T12:23:32.474Z,56.52
2022-09-07T12:26:52.399Z,57.03
2022-09-07T12:29:27.573Z,56.76
2022-09-07T12:32:08.556Z,57.01
2022-09-07T12:34:58.050Z,56.85
2022-09-07T12:37:46.784Z,56.63
2022-09-07T12:40:49.272Z,56.41
2022-09-07T12:44:06.236Z,55.75
2022-09-07T12:46:55.230Z,53.42
2022-09-07T12:50:10.092Z,51.82
2022-09-07T12:53:21.403Z,51.07
2022-09-07T12:56:21.688Z,49.73
2022-09-07T12:59:19.850Z,48.35
2022-09-07T13:02:01.605Z,48.04
2022-09-07T13:04:59.679Z,46.23
2022-09-07T13:08:08.216Z,46.31
2022-09-07T13:10:40.744Z,46.48
2022-09-07T13:20:18.264Z,44.04
2022-09-07T13:23:30.501Z,44.92
2022-09-07T13:26:01.493Z,46.18
2022-09-07T13:28:42.709Z,47.51
2022-09-07T13:31:40.327Z,49.01
2022-09-07T13:35:04.199Z,49.43
2022-09-07T13:37:45.355Z,50.10
2022-09-07T13:40:23.367Z,50.70
2022-09-07T13:42:53.491Z,50.87
2022-09-07T13:45:33.738Z,51.07
2022-09-07T13:48:18.109Z,49.34
2022-09-07T13:51:01.377Z,48.97
2022-09-07T13:53:47.285Z,47.16
2022-09-07T13:56:35.038Z,47.47
2022-09-07T13:59:19.698Z,47.32
2022-09-07T14:01:51.856Z,46.39
2022-09-07T14:04:26.818Z,47.16
2022-09-07T14:07:04.204Z,47.82
2022-09-07T14:09:33.824Z,48.29
2022-09-07T14:12:15.018Z,48.67
2022-09-07T14:14:43.606Z,49.12
2022-09-07T14:17:16.810Z,49.46
2022-09-07T14:19:49.427Z,49.92
2022-09-07T14:22:21.479Z,50.15
2022-09-07T14:24:54.178Z,50.58
2022-09-07T14:27:27.127Z,51.08
2022-09-07T14:29:55.734Z,52.22
2022-09-07T14:32:27.322Z,52.75
2022-09-07T14:34:56.397Z,53.21
2022-09-07T14:37:25.686Z,53.23
2022-09-07T14:39:56.548Z,53.50
2022-09-07T14:42:27.578Z,53.13
2022-09-07T14:45:18.587Z,53.49
2022-09-07T14:47:51.978Z,53.75
2022-09-07T14:50:24.254Z,54.08
2022-09-07T14:55:48.073Z,54.31
2022-09-07T14:58:26.925Z,54.56
2022-09-07T15:04:02.150Z,55.29
2022-09-07T15:07:07.616Z,55.63
2022-09-07T15:09:39.420Z,56.17
2022-09-07T15:12:30.060Z,56.68
2022-09-07T15:15:26.279Z,56.91
2022-09-07T15:18:04.355Z,57.52
2022-09-07T15:20:43.357Z,57.98
2022-09-07T15:23:15.857Z,58.42
2022-09-07T15:25:51.134Z,59.24
2022-09-07T15:34:13.956Z,61.32
2022-09-07T15:36:48.750Z,62.53
2022-09-07T15:39:21.669Z,62.55
2022-09-07T15:41:51.666Z,63.20
2022-09-07T15:44:26.546Z,62.93
2022-09-07T15:49:51.473Z,62.38
2022-09-07T15:59:49.966Z,58.92
2022-09-07T16:05:14.427Z,57.02
2022-09-07T16:10:35.003Z,56.10
2022-09-07T16:13:10.460Z,56.63
2022-09-07T16:15:45.552Z,57.12
2022-09-07T16:18:18.975Z,57.87
2022-09-07T16:20:53.259Z,60.02
2022-09-07T16:23:22.814Z,60.29
2022-09-07T16:25:59.939Z,60.89
2022-09-07T16:28:31.718Z,61.73
2022-09-07T16:31:01.164Z,62.38
2022-09-07T16:33:36.993Z,63.02
2022-09-07T16:36:13.133Z,63.65
2022-09-07T16:38:45.020Z,64.29
2022-09-07T16:41:22.997Z,63.09
2022-09-07T16:43:52.576Z,62.93
2022-09-07T16:46:27.045Z,62.88
2022-09-07T16:48:57.678Z,63.38
2022-09-07T16:51:28.587Z,63.98
2022-09-07T16:53:59.875Z,63.79
2022-09-07T16:56:35.673Z,64.27
2022-09-07T16:59:10.043Z,64.69
2022-09-07T17:01:41.055Z,65.31
2022-09-07T17:04:12.205Z,65.21
2022-09-07T17:06:54.769Z,65.57
2022-09-07T17:09:26.819Z,65.94
2022-09-07T17:11:56.137Z,67.23
2022-09-07T17:14:24.889Z,67.31
2022-09-07T17:16:54.019Z,67.97
2022-09-07T17:19:31.655Z,68.81
2022-09-07T17:22:05.943Z,69.10
2022-09-07T17:24:34.589Z,69.45
2022-09-07T17:27:03.753Z,70.31
2022-09-07T17:29:37.018Z,71.21
2022-09-07T17:32:23.871Z,71.65
2022-09-07T17:34:55.658Z,72.04
2022-09-07T17:37:25.707Z,72.93
2022-09-07T17:39:57.383Z,73.78
2022-09-07T17:43:38.735Z,73.43
2022-09-07T17:45:17.658Z,72.66
2022-09-07T17:47:46.670Z,73.95
2022-09-07T17:50:17.145Z,73.80
2022-09-07T17:52:46.251Z,74.60
2022-09-07T17:55:15.332Z,75.06
2022-09-07T17:57:44.193Z,75.08
2022-09-07T18:00:15.386Z,75.56
2022-09-07T18:02:44.607Z,78.75
2022-09-07T18:05:16.839Z,79.50
2022-09-07T18:07:47.123Z,79.19
2022-09-07T18:10:16.707Z,79.43
2022-09-07T18:12:45.774Z,79.98
2022-09-07T18:15:14.926Z,80.14
2022-09-07T18:17:44.012Z,79.97
2022-09-07T18:20:12.947Z,80.18
2022-09-07T18:22:43.156Z,80.26
2022-09-07T18:25:11.972Z,80.09
2022-09-07T18:27:41.388Z,79.87
2022-09-07T18:30:12.002Z,80.98
2022-09-07T18:32:41.261Z,80.43
2022-09-07T18:36:01.473Z,80.25
2022-09-07T18:38:32.645Z,80.85
2022-09-07T18:41:05.495Z,80.33
2022-09-07T18:43:37.987Z,79.76
2022-09-07T18:46:09.880Z,80.75
2022-09-07T18:48:38.961Z,80.46
2022-09-07T18:51:09.774Z,81.85
2022-09-07T18:53:40.618Z,82.14
2022-09-07T18:56:14.737Z,82.54
2022-09-07T18:58:44.214Z,82.27
2022-09-07T19:01:15.853Z,81.97
2022-09-07T19:03:53.026Z,82.63
2022-09-07T19:06:22.334Z,83.04
2022-09-07T19:08:54.013Z,84.69
2022-09-07T19:11:25.369Z,83.66
2022-09-07T19:13:57.545Z,83.47
2022-09-07T19:16:28.020Z,83.55
2022-09-07T19:18:59.003Z,83.47
2022-09-07T19:21:31.155Z,83.05
2022-09-07T19:24:03.701Z,82.78
2022-09-07T19:26:35.389Z,83.30
2022-09-07T19:29:10.349Z,83.00
2022-09-07T19:31:39.194Z,84.71
2022-09-07T19:34:07.826Z,85.38
2022-09-07T19:36:36.903Z,85.71
2022-09-07T19:39:07.692Z,86.22
2022-09-07T19:41:38.252Z,86.06
2022-09-07T19:44:06.896Z,85.96
2022-09-07T19:46:35.784Z,85.45
2022-09-07T19:49:04.912Z,85.95
2022-09-07T19:51:36.696Z,85.89
2022-09-07T19:54:07.891Z,86.30
2022-09-07T19:56:39.166Z,87.17
2022-09-07T19:59:08.933Z,87.84
2022-09-07T20:01:38.756Z,88.46
2022-09-07T20:04:17.414Z,88.66
2022-09-07T20:06:50.349Z,88.58
2022-09-07T20:09:21.484Z,91.07
2022-09-07T20:11:50.134Z,90.70
2022-09-07T20:14:24.984Z,90.27
2022-09-07T20:16:54.160Z,90.67
2022-09-07T20:19:22.733Z,91.05
2022-09-07T20:21:55.685Z,91.15
2022-09-07T20:24:25.814Z,90.51
2022-09-07T20:26:54.778Z,89.82
2022-09-07T20:29:27.734Z,89.81
2022-09-07T20:31:58.733Z,89.60
2022-09-07T20:34:28.507Z,89.39
2022-09-07T20:36:57.393Z,89.26
2022-09-07T20:39:34.594Z,88.93
2022-09-07T20:42:06.762Z,90.06
2022-09-07T20:44:35.449Z,89.94
2022-09-07T20:47:04.148Z,89.70
2022-09-07T20:49:32.774Z,88.99
2022-09-07T20:52:01.722Z,89.55
2022-09-07T20:54:32.707Z,88.98
2022-09-07T20:57:04.017Z,88.62
2022-09-07T20:59:32.994Z,88.45
2022-09-07T21:02:01.667Z,89.23
2022-09-07T21:04:30.788Z,89.25
2022-09-07T21:06:59.495Z,89.17
2022-09-07T21:09:28.152Z,88.66
2022-09-07T21:11:58.137Z,89.03
2022-09-07T21:14:26.818Z,89.05
2022-09-07T21:16:55.528Z,89.08
2022-09-07T21:19:24.264Z,90.36
2022-09-07T21:22:04.090Z,90.05
2022-09-07T21:24:32.740Z,90.82
2022-09-07T21:27:02.768Z,89.97
2022-09-07T21:29:31.565Z,89.89
2022-09-07T21:32:00.103Z,90.80
2022-09-07T21:34:28.846Z,91.56
2022-09-07T21:36:57.597Z,92.19
2022-09-07T21:39:26.298Z,93.31
2022-09-07T21:41:55.070Z,93.01
2022-09-07T21:44:25.858Z,94.65
2022-09-07T21:46:54.826Z,94.67
2022-09-07T21:49:23.599Z,95.08
2022-09-07T21:51:52.232Z,95.01
2022-09-07T21:54:20.819Z,95.47
2022-09-07T21:56:49.450Z,95.52
2022-09-07T21:59:18.233Z,96.13
2022-09-07T22:01:48.832Z,96.48
2022-09-07T22:04:17.588Z,96.26
2022-09-07T22:06:46.200Z,97.51
2022-09-07T22:09:15.106Z,97.21
2022-09-07T22:11:46.055Z,97.85
2022-09-07T22:14:16.460Z,97.73
2022-09-07T22:16:45.180Z,97.88
2022-09-07T22:19:15.031Z,97.37
2022-09-07T22:21:43.828Z,97.51
2022-09-07T22:24:15.313Z,98.20
2022-09-07T22:26:44.013Z,98.30
2022-09-07T22:29:13.691Z,98.50
2022-09-07T22:31:42.741Z,99.04
2022-09-07T22:34:11.857Z,98.19
2022-09-07T22:36:44.352Z,97.78
2022-09-07T22:39:17.246Z,97.92
2022-09-07T22:41:47.491Z,97.87
2022-09-07T22:44:19.293Z,98.55
2022-09-07T22:46:49.509Z,100.00
2022-09-07T22:49:19.081Z,100.00
2022-09-07T22:51:49.353Z,100.00
2022-09-07T22:54:18.149Z,100.00
2022-09-07T22:56:46.868Z,100.00
2022-09-07T22:59:15.635Z,100.00
2022-09-07T23:01:44.340Z,100.00
2022-09-07T23:04:13.638Z,100.00
2022-09-07T23:06:44.382Z,100.00
2022-09-07T23:09:17.590Z,100.00
2022-09-07T23:11:48.507Z,100.00
2022-09-07T23:14:20.655Z,100.00
2022-09-07T23:16:50.626Z,100.00
2022-09-07T23:19:20.720Z,100.00
2022-09-07T23:21:49.665Z,100.00
2022-09-07T23:24:20.245Z,100.00
2022-09-07T23:26:49.612Z,100.00
2022-09-07T23:29:20.728Z,100.00
2022-09-07T23:31:49.705Z,100.00
2022-09-07T23:34:18.535Z,100.00
2022-09-07T23:36:47.159Z,100.00
2022-09-07T23:39:15.714Z,100.00
2022-09-07T23:41:45.793Z,100.00
2022-09-07T23:44:14.475Z,100.00
2022-09-07T23:46:43.131Z,100.00
2022-09-07T23:49:11.759Z,100.00
2022-09-07T23:51:40.321Z,100.00
2022-09-07T23:54:09.538Z,100.00
2022-09-07T23:56:39.127Z,100.00
2022-09-07T23:59:12.305Z,100.00
